sensor_id;sensor_type;location;lat;lon;timestamp;P1;durP1;ratioP1;P2;durP2;ratioP2
79493;SDS011;68951;53.130;18.104;2023-06-19T00:00:45;15.40;;;11.50;;
79493;SDS011;68951;53.130;18.104;2023-06-19T00:03:32;15.00;;;11.40;;
79493;SDS011;68951;53.130;18.104;2023-06-19T00:05:59;18.50;;;13.60;;
79493;SDS011;68951;53.130;18.104;2023-06-19T00:08:26;19.30;;;16.70;;
79493;SDS011;68951;53.130;18.104;2023-06-19T00:10:54;15.50;;;13.00;;
79493;SDS011;68951;53.130;18.104;2023-06-19T00:13:21;15.40;;;11.50;;
79493;SDS011;68951;53.130;18.104;2023-06-19T00:15:48;15.50;;;11.50;;
79493;SDS011;68951;53.130;18.104;2023-06-19T00:18:15;14.40;;;10.40;;
79493;SDS011;68951;53.130;18.104;2023-06-19T00:20:43;16.20;;;12.20;;
79493;SDS011;68951;53.130;18.104;2023-06-19T00:23:12;14.60;;;11.70;;
79493;SDS011;68951;53.130;18.104;2023-06-19T00:25:41;16.40;;;12.70;;
79493;SDS011;68951;53.130;18.104;2023-06-19T00:28:09;19.10;;;12.60;;
79493;SDS011;68951;53.130;18.104;2023-06-19T00:30:40;15.90;;;12.20;;
79493;SDS011;68951;53.130;18.104;2023-06-19T00:33:08;14.00;;;11.60;;
79493;SDS011;68951;53.130;18.104;2023-06-19T00:35:35;14.00;;;10.70;;
79493;SDS011;68951;53.130;18.104;2023-06-19T00:38:02;17.30;;;12.60;;
79493;SDS011;68951;53.130;18.104;2023-06-19T00:40:32;14.10;;;11.30;;
79493;SDS011;68951;53.130;18.104;2023-06-19T00:43:00;15.40;;;11.70;;
79493;SDS011;68951;53.130;18.104;2023-06-19T00:45:27;17.60;;;13.30;;
79493;SDS011;68951;53.130;18.104;2023-06-19T00:47:56;16.40;;;12.00;;
79493;SDS011;68951;53.130;18.104;2023-06-19T00:50:24;17.70;;;12.00;;
79493;SDS011;68951;53.130;18.104;2023-06-19T00:52:51;20.80;;;13.20;;
79493;SDS011;68951;53.130;18.104;2023-06-19T00:55:18;17.90;;;13.60;;
79493;SDS011;68951;53.130;18.104;2023-06-19T00:57:45;17.90;;;13.60;;
79493;SDS011;68951;53.130;18.104;2023-06-19T01:00:13;16.90;;;14.10;;
79493;SDS011;68951;53.130;18.104;2023-06-19T01:02:40;17.00;;;13.10;;
79493;SDS011;68951;53.130;18.104;2023-06-19T01:05:07;16.20;;;11.90;;
79493;SDS011;68951;53.130;18.104;2023-06-19T01:07:54;16.30;;;11.80;;
79493;SDS011;68951;53.130;18.104;2023-06-19T01:10:27;19.50;;;14.60;;
79493;SDS011;68951;53.130;18.104;2023-06-19T01:13:11;19.00;;;15.20;;
79493;SDS011;68951;53.130;18.104;2023-06-19T01:15:41;18.10;;;14.50;;
79493;SDS011;68951;53.130;18.104;2023-06-19T01:18:09;16.70;;;13.60;;
79493;SDS011;68951;53.130;18.104;2023-06-19T01:20:39;19.10;;;14.10;;
79493;SDS011;68951;53.130;18.104;2023-06-19T01:23:10;17.20;;;13.40;;
79493;SDS011;68951;53.130;18.104;2023-06-19T01:25:38;16.20;;;13.30;;
79493;SDS011;68951;53.130;18.104;2023-06-19T01:28:09;16.80;;;11.80;;
79493;SDS011;68951;53.130;18.104;2023-06-19T01:30:40;16.60;;;12.60;;
79493;SDS011;68951;53.130;18.104;2023-06-19T01:33:12;16.10;;;11.90;;
79493;SDS011;68951;53.130;18.104;2023-06-19T01:35:46;15.00;;;11.50;;
79493;SDS011;68951;53.130;18.104;2023-06-19T01:38:16;13.90;;;11.40;;
79493;SDS011;68951;53.130;18.104;2023-06-19T01:40:44;15.10;;;11.00;;
79493;SDS011;68951;53.130;18.104;2023-06-19T01:43:11;16.30;;;11.40;;
79493;SDS011;68951;53.130;18.104;2023-06-19T01:45:39;14.20;;;11.10;;
79493;SDS011;68951;53.130;18.104;2023-06-19T01:48:06;14.00;;;11.50;;
79493;SDS011;68951;53.130;18.104;2023-06-19T01:50:34;14.20;;;11.60;;
79493;SDS011;68951;53.130;18.104;2023-06-19T01:53:00;17.00;;;12.90;;
79493;SDS011;68951;53.130;18.104;2023-06-19T01:55:27;17.50;;;12.30;;
79493;SDS011;68951;53.130;18.104;2023-06-19T01:57:54;16.90;;;13.20;;
79493;SDS011;68951;53.130;18.104;2023-06-19T02:00:21;18.10;;;13.40;;
79493;SDS011;68951;53.130;18.104;2023-06-19T02:02:48;19.20;;;13.70;;
79493;SDS011;68951;53.130;18.104;2023-06-19T02:05:15;19.10;;;13.50;;
79493;SDS011;68951;53.130;18.104;2023-06-19T02:07:42;17.70;;;12.70;;
79493;SDS011;68951;53.130;18.104;2023-06-19T02:10:09;16.80;;;12.30;;
79493;SDS011;68951;53.130;18.104;2023-06-19T02:12:36;19.40;;;12.70;;
79493;SDS011;68951;53.130;18.104;2023-06-19T02:15:03;20.40;;;13.90;;
79493;SDS011;68951;53.130;18.104;2023-06-19T02:17:30;19.10;;;14.30;;
79493;SDS011;68951;53.130;18.104;2023-06-19T02:19:57;17.30;;;13.40;;
79493;SDS011;68951;53.130;18.104;2023-06-19T02:22:24;18.00;;;12.50;;
79493;SDS011;68951;53.130;18.104;2023-06-19T02:24:50;17.90;;;12.70;;
79493;SDS011;68951;53.130;18.104;2023-06-19T02:27:17;16.30;;;11.30;;
79493;SDS011;68951;53.130;18.104;2023-06-19T02:29:44;18.10;;;13.70;;
79493;SDS011;68951;53.130;18.104;2023-06-19T02:32:11;18.40;;;12.70;;
79493;SDS011;68951;53.130;18.104;2023-06-19T02:34:38;16.10;;;12.70;;
79493;SDS011;68951;53.130;18.104;2023-06-19T02:37:05;15.90;;;12.40;;
79493;SDS011;68951;53.130;18.104;2023-06-19T02:39:32;16.80;;;12.30;;
79493;SDS011;68951;53.130;18.104;2023-06-19T02:41:59;14.70;;;11.90;;
79493;SDS011;68951;53.130;18.104;2023-06-19T02:44:26;15.10;;;11.00;;
79493;SDS011;68951;53.130;18.104;2023-06-19T02:46:53;18.60;;;12.80;;
79493;SDS011;68951;53.130;18.104;2023-06-19T02:49:19;15.60;;;11.50;;
79493;SDS011;68951;53.130;18.104;2023-06-19T02:51:46;16.90;;;12.90;;
79493;SDS011;68951;53.130;18.104;2023-06-19T02:54:13;16.30;;;12.30;;
79493;SDS011;68951;53.130;18.104;2023-06-19T02:56:40;17.90;;;12.50;;
79493;SDS011;68951;53.130;18.104;2023-06-19T02:59:07;18.20;;;12.70;;
79493;SDS011;68951;53.130;18.104;2023-06-19T03:01:33;18.50;;;12.30;;
79493;SDS011;68951;53.130;18.104;2023-06-19T03:04:00;17.10;;;12.60;;
79493;SDS011;68951;53.130;18.104;2023-06-19T03:06:27;20.60;;;12.80;;
79493;SDS011;68951;53.130;18.104;2023-06-19T03:08:54;19.80;;;13.00;;
79493;SDS011;68951;53.130;18.104;2023-06-19T03:11:21;20.00;;;13.50;;
79493;SDS011;68951;53.130;18.104;2023-06-19T03:13:50;18.10;;;13.20;;
79493;SDS011;68951;53.130;18.104;2023-06-19T03:16:18;18.20;;;12.90;;
79493;SDS011;68951;53.130;18.104;2023-06-19T03:18:47;18.30;;;12.90;;
79493;SDS011;68951;53.130;18.104;2023-06-19T03:21:14;17.80;;;12.10;;
79493;SDS011;68951;53.130;18.104;2023-06-19T03:23:41;17.00;;;12.60;;
79493;SDS011;68951;53.130;18.104;2023-06-19T03:26:11;20.10;;;12.30;;
79493;SDS011;68951;53.130;18.104;2023-06-19T03:28:38;16.30;;;11.90;;
79493;SDS011;68951;53.130;18.104;2023-06-19T03:31:05;17.00;;;12.20;;
79493;SDS011;68951;53.130;18.104;2023-06-19T03:33:32;15.30;;;12.70;;
79493;SDS011;68951;53.130;18.104;2023-06-19T03:35:59;15.10;;;12.30;;
79493;SDS011;68951;53.130;18.104;2023-06-19T03:38:25;18.80;;;13.40;;
79493;SDS011;68951;53.130;18.104;2023-06-19T03:40:53;14.90;;;12.20;;
79493;SDS011;68951;53.130;18.104;2023-06-19T03:43:20;14.50;;;10.90;;
79493;SDS011;68951;53.130;18.104;2023-06-19T03:45:47;16.90;;;12.50;;
79493;SDS011;68951;53.130;18.104;2023-06-19T03:48:15;15.30;;;11.80;;
79493;SDS011;68951;53.130;18.104;2023-06-19T03:50:43;14.40;;;12.90;;
79493;SDS011;68951;53.130;18.104;2023-06-19T03:53:10;15.60;;;12.30;;
79493;SDS011;68951;53.130;18.104;2023-06-19T03:55:36;15.70;;;12.50;;
79493;SDS011;68951;53.130;18.104;2023-06-19T03:58:03;16.80;;;12.30;;
79493;SDS011;68951;53.130;18.104;2023-06-19T04:00:31;15.30;;;11.90;;
79493;SDS011;68951;53.130;18.104;2023-06-19T04:02:58;16.40;;;12.80;;
79493;SDS011;68951;53.130;18.104;2023-06-19T04:05:25;16.20;;;13.40;;
79493;SDS011;68951;53.130;18.104;2023-06-19T04:07:52;19.70;;;14.80;;
79493;SDS011;68951;53.130;18.104;2023-06-19T04:10:19;20.20;;;15.00;;
79493;SDS011;68951;53.130;18.104;2023-06-19T04:12:47;19.20;;;15.00;;
79493;SDS011;68951;53.130;18.104;2023-06-19T04:15:14;18.90;;;14.50;;
79493;SDS011;68951;53.130;18.104;2023-06-19T04:17:41;20.30;;;15.00;;
79493;SDS011;68951;53.130;18.104;2023-06-19T04:20:08;22.40;;;14.60;;
79493;SDS011;68951;53.130;18.104;2023-06-19T04:22:38;19.60;;;15.40;;
79493;SDS011;68951;53.130;18.104;2023-06-19T04:25:07;23.00;;;16.40;;
79493;SDS011;68951;53.130;18.104;2023-06-19T04:27:35;21.10;;;16.30;;
79493;SDS011;68951;53.130;18.104;2023-06-19T04:30:03;18.50;;;15.60;;
79493;SDS011;68951;53.130;18.104;2023-06-19T04:32:30;23.90;;;17.70;;
79493;SDS011;68951;53.130;18.104;2023-06-19T04:34:57;21.70;;;17.20;;
79493;SDS011;68951;53.130;18.104;2023-06-19T04:37:24;24.70;;;17.30;;
79493;SDS011;68951;53.130;18.104;2023-06-19T04:39:51;20.70;;;16.60;;
79493;SDS011;68951;53.130;18.104;2023-06-19T04:42:17;22.10;;;16.20;;
79493;SDS011;68951;53.130;18.104;2023-06-19T04:44:48;18.90;;;14.20;;
79493;SDS011;68951;53.130;18.104;2023-06-19T04:47:16;25.00;;;18.30;;
79493;SDS011;68951;53.130;18.104;2023-06-19T04:49:44;19.70;;;16.10;;
79493;SDS011;68951;53.130;18.104;2023-06-19T04:52:11;25.60;;;17.80;;
79493;SDS011;68951;53.130;18.104;2023-06-19T04:54:38;22.10;;;18.30;;
79493;SDS011;68951;53.130;18.104;2023-06-19T04:57:05;23.80;;;18.90;;
79493;SDS011;68951;53.130;18.104;2023-06-19T04:59:33;20.90;;;15.20;;
79493;SDS011;68951;53.130;18.104;2023-06-19T05:02:00;22.70;;;16.60;;
79493;SDS011;68951;53.130;18.104;2023-06-19T05:04:27;28.60;;;18.30;;
79493;SDS011;68951;53.130;18.104;2023-06-19T05:06:53;25.40;;;18.50;;
79493;SDS011;68951;53.130;18.104;2023-06-19T05:09:20;23.90;;;18.00;;
79493;SDS011;68951;53.130;18.104;2023-06-19T05:11:47;26.00;;;18.40;;
79493;SDS011;68951;53.130;18.104;2023-06-19T05:14:14;22.90;;;16.50;;
79493;SDS011;68951;53.130;18.104;2023-06-19T05:16:41;22.60;;;17.20;;
79493;SDS011;68951;53.130;18.104;2023-06-19T05:19:08;25.90;;;19.10;;
79493;SDS011;68951;53.130;18.104;2023-06-19T05:21:35;23.90;;;19.20;;
79493;SDS011;68951;53.130;18.104;2023-06-19T05:24:02;25.90;;;19.90;;
79493;SDS011;68951;53.130;18.104;2023-06-19T05:26:29;26.90;;;20.10;;
79493;SDS011;68951;53.130;18.104;2023-06-19T05:28:56;22.40;;;18.60;;
79493;SDS011;68951;53.130;18.104;2023-06-19T05:31:23;24.50;;;18.70;;
79493;SDS011;68951;53.130;18.104;2023-06-19T05:33:49;25.30;;;19.50;;
79493;SDS011;68951;53.130;18.104;2023-06-19T05:36:16;24.30;;;19.30;;
79493;SDS011;68951;53.130;18.104;2023-06-19T05:38:43;26.90;;;21.30;;
79493;SDS011;68951;53.130;18.104;2023-06-19T05:41:10;26.00;;;19.30;;
79493;SDS011;68951;53.130;18.104;2023-06-19T05:43:38;20.70;;;15.70;;
79493;SDS011;68951;53.130;18.104;2023-06-19T05:46:05;19.00;;;15.00;;
79493;SDS011;68951;53.130;18.104;2023-06-19T05:48:31;21.50;;;14.50;;
79493;SDS011;68951;53.130;18.104;2023-06-19T05:50:58;29.70;;;19.70;;
79493;SDS011;68951;53.130;18.104;2023-06-19T05:53:25;24.50;;;19.10;;
79493;SDS011;68951;53.130;18.104;2023-06-19T05:55:52;25.10;;;18.20;;
79493;SDS011;68951;53.130;18.104;2023-06-19T05:58:19;22.30;;;18.10;;
79493;SDS011;68951;53.130;18.104;2023-06-19T06:00:49;20.50;;;15.70;;
79493;SDS011;68951;53.130;18.104;2023-06-19T06:03:15;22.30;;;15.70;;
79493;SDS011;68951;53.130;18.104;2023-06-19T06:05:42;23.50;;;17.00;;
79493;SDS011;68951;53.130;18.104;2023-06-19T06:08:09;25.40;;;17.70;;
79493;SDS011;68951;53.130;18.104;2023-06-19T06:10:36;24.30;;;18.40;;
79493;SDS011;68951;53.130;18.104;2023-06-19T06:13:03;22.80;;;17.50;;
79493;SDS011;68951;53.130;18.104;2023-06-19T06:15:30;21.30;;;16.30;;
79493;SDS011;68951;53.130;18.104;2023-06-19T06:17:57;21.80;;;16.10;;
79493;SDS011;68951;53.130;18.104;2023-06-19T06:20:23;23.20;;;17.20;;
79493;SDS011;68951;53.130;18.104;2023-06-19T06:22:50;21.10;;;14.40;;
79493;SDS011;68951;53.130;18.104;2023-06-19T06:25:17;23.30;;;15.40;;
79493;SDS011;68951;53.130;18.104;2023-06-19T06:27:44;21.30;;;16.80;;
79493;SDS011;68951;53.130;18.104;2023-06-19T06:30:11;19.90;;;15.70;;
79493;SDS011;68951;53.130;18.104;2023-06-19T06:32:38;16.10;;;10.90;;
79493;SDS011;68951;53.130;18.104;2023-06-19T06:35:05;19.40;;;13.10;;
79493;SDS011;68951;53.130;18.104;2023-06-19T06:37:33;22.60;;;16.80;;
79493;SDS011;68951;53.130;18.104;2023-06-19T06:40:00;20.30;;;14.00;;
79493;SDS011;68951;53.130;18.104;2023-06-19T06:42:27;23.10;;;16.00;;
79493;SDS011;68951;53.130;18.104;2023-06-19T06:44:55;23.00;;;14.60;;
79493;SDS011;68951;53.130;18.104;2023-06-19T06:47:21;22.70;;;16.20;;
79493;SDS011;68951;53.130;18.104;2023-06-19T06:49:48;19.00;;;12.70;;
79493;SDS011;68951;53.130;18.104;2023-06-19T06:52:15;20.00;;;12.90;;
79493;SDS011;68951;53.130;18.104;2023-06-19T06:54:42;24.40;;;16.60;;
79493;SDS011;68951;53.130;18.104;2023-06-19T06:57:09;20.50;;;12.30;;
79493;SDS011;68951;53.130;18.104;2023-06-19T06:59:36;18.60;;;12.90;;
79493;SDS011;68951;53.130;18.104;2023-06-19T07:02:02;20.90;;;12.90;;
79493;SDS011;68951;53.130;18.104;2023-06-19T07:04:30;19.70;;;14.10;;
79493;SDS011;68951;53.130;18.104;2023-06-19T07:06:56;17.50;;;14.70;;
79493;SDS011;68951;53.130;18.104;2023-06-19T07:09:24;15.30;;;12.20;;
79493;SDS011;68951;53.130;18.104;2023-06-19T07:11:51;15.50;;;12.10;;
79493;SDS011;68951;53.130;18.104;2023-06-19T07:14:18;13.40;;;10.10;;
79493;SDS011;68951;53.130;18.104;2023-06-19T07:16:45;14.80;;;10.40;;
79493;SDS011;68951;53.130;18.104;2023-06-19T07:19:12;15.20;;;11.80;;
79493;SDS011;68951;53.130;18.104;2023-06-19T07:21:40;15.40;;;11.50;;
79493;SDS011;68951;53.130;18.104;2023-06-19T07:24:07;14.40;;;11.20;;
79493;SDS011;68951;53.130;18.104;2023-06-19T07:26:35;16.00;;;11.50;;
79493;SDS011;68951;53.130;18.104;2023-06-19T07:29:02;14.50;;;11.30;;
79493;SDS011;68951;53.130;18.104;2023-06-19T07:31:29;11.90;;;9.00;;
79493;SDS011;68951;53.130;18.104;2023-06-19T07:33:56;11.60;;;7.80;;
79493;SDS011;68951;53.130;18.104;2023-06-19T07:36:22;13.60;;;7.40;;
79493;SDS011;68951;53.130;18.104;2023-06-19T07:38:51;11.70;;;8.50;;
79493;SDS011;68951;53.130;18.104;2023-06-19T07:41:19;12.20;;;8.80;;
79493;SDS011;68951;53.130;18.104;2023-06-19T07:43:46;12.50;;;9.60;;
79493;SDS011;68951;53.130;18.104;2023-06-19T07:46:13;11.50;;;8.10;;
79493;SDS011;68951;53.130;18.104;2023-06-19T07:48:41;11.00;;;8.10;;
79493;SDS011;68951;53.130;18.104;2023-06-19T07:51:08;11.10;;;8.50;;
79493;SDS011;68951;53.130;18.104;2023-06-19T07:53:35;8.60;;;6.20;;
79493;SDS011;68951;53.130;18.104;2023-06-19T07:56:02;9.00;;;7.80;;
79493;SDS011;68951;53.130;18.104;2023-06-19T07:58:29;10.20;;;8.00;;
79493;SDS011;68951;53.130;18.104;2023-06-19T08:01:14;12.40;;;8.20;;
79493;SDS011;68951;53.130;18.104;2023-06-19T08:03:41;12.10;;;8.80;;
79493;SDS011;68951;53.130;18.104;2023-06-19T08:06:08;11.70;;;8.20;;
79493;SDS011;68951;53.130;18.104;2023-06-19T08:08:35;13.20;;;8.60;;
79493;SDS011;68951;53.130;18.104;2023-06-19T08:11:02;14.20;;;9.20;;
79493;SDS011;68951;53.130;18.104;2023-06-19T08:13:29;23.80;;;9.70;;
79493;SDS011;68951;53.130;18.104;2023-06-19T08:15:56;19.10;;;9.10;;
79493;SDS011;68951;53.130;18.104;2023-06-19T08:18:23;22.90;;;9.30;;
79493;SDS011;68951;53.130;18.104;2023-06-19T08:20:49;9.80;;;7.70;;
79493;SDS011;68951;53.130;18.104;2023-06-19T08:23:16;9.50;;;6.30;;
79493;SDS011;68951;53.130;18.104;2023-06-19T08:25:43;9.60;;;6.90;;
79493;SDS011;68951;53.130;18.104;2023-06-19T08:28:10;7.70;;;5.90;;
79493;SDS011;68951;53.130;18.104;2023-06-19T08:30:37;8.70;;;6.10;;
79493;SDS011;68951;53.130;18.104;2023-06-19T08:33:03;8.70;;;6.40;;
79493;SDS011;68951;53.130;18.104;2023-06-19T08:35:30;8.40;;;5.70;;
79493;SDS011;68951;53.130;18.104;2023-06-19T08:37:57;8.90;;;6.60;;
79493;SDS011;68951;53.130;18.104;2023-06-19T08:40:24;9.70;;;5.90;;
79493;SDS011;68951;53.130;18.104;2023-06-19T08:42:51;9.50;;;6.00;;
79493;SDS011;68951;53.130;18.104;2023-06-19T08:45:18;9.40;;;6.30;;
79493;SDS011;68951;53.130;18.104;2023-06-19T08:47:48;9.10;;;5.70;;
79493;SDS011;68951;53.130;18.104;2023-06-19T08:50:16;9.30;;;6.30;;
79493;SDS011;68951;53.130;18.104;2023-06-19T08:52:42;8.10;;;6.30;;
79493;SDS011;68951;53.130;18.104;2023-06-19T08:55:09;9.30;;;6.50;;
79493;SDS011;68951;53.130;18.104;2023-06-19T08:57:40;10.50;;;7.20;;
79493;SDS011;68951;53.130;18.104;2023-06-19T09:00:08;9.10;;;7.40;;
79493;SDS011;68951;53.130;18.104;2023-06-19T09:02:46;8.70;;;7.10;;
79493;SDS011;68951;53.130;18.104;2023-06-19T09:05:14;8.10;;;6.30;;
79493;SDS011;68951;53.130;18.104;2023-06-19T09:07:57;9.40;;;6.70;;
79493;SDS011;68951;53.130;18.104;2023-06-19T09:10:27;7.90;;;6.10;;
79493;SDS011;68951;53.130;18.104;2023-06-19T09:12:58;7.90;;;6.60;;
79493;SDS011;68951;53.130;18.104;2023-06-19T09:15:36;8.80;;;6.00;;
79493;SDS011;68951;53.130;18.104;2023-06-19T09:18:08;9.30;;;6.90;;
79493;SDS011;68951;53.130;18.104;2023-06-19T09:20:41;8.60;;;6.50;;
79493;SDS011;68951;53.130;18.104;2023-06-19T09:23:11;8.20;;;6.10;;
79493;SDS011;68951;53.130;18.104;2023-06-19T09:25:49;7.20;;;5.10;;
79493;SDS011;68951;53.130;18.104;2023-06-19T09:28:25;7.80;;;6.30;;
79493;SDS011;68951;53.130;18.104;2023-06-19T09:31:01;8.10;;;6.40;;
79493;SDS011;68951;53.130;18.104;2023-06-19T09:33:33;9.00;;;6.30;;
79493;SDS011;68951;53.130;18.104;2023-06-19T09:36:02;9.20;;;6.60;;
79493;SDS011;68951;53.130;18.104;2023-06-19T09:38:38;10.40;;;6.80;;
79493;SDS011;68951;53.130;18.104;2023-06-19T09:41:07;8.50;;;6.20;;
79493;SDS011;68951;53.130;18.104;2023-06-19T09:43:44;9.60;;;6.60;;
79493;SDS011;68951;53.130;18.104;2023-06-19T09:46:14;10.60;;;7.40;;
79493;SDS011;68951;53.130;18.104;2023-06-19T09:48:45;8.50;;;6.50;;
79493;SDS011;68951;53.130;18.104;2023-06-19T09:51:23;8.40;;;6.90;;
79493;SDS011;68951;53.130;18.104;2023-06-19T09:54:05;8.80;;;6.70;;
79493;SDS011;68951;53.130;18.104;2023-06-19T09:56:34;7.50;;;6.30;;
79493;SDS011;68951;53.130;18.104;2023-06-19T09:59:01;9.20;;;6.40;;
79493;SDS011;68951;53.130;18.104;2023-06-19T10:01:31;8.40;;;5.90;;
79493;SDS011;68951;53.130;18.104;2023-06-19T10:04:07;7.50;;;6.10;;
79493;SDS011;68951;53.130;18.104;2023-06-19T10:06:46;7.70;;;5.80;;
79493;SDS011;68951;53.130;18.104;2023-06-19T10:09:14;8.50;;;6.30;;
79493;SDS011;68951;53.130;18.104;2023-06-19T10:11:50;8.30;;;6.20;;
79493;SDS011;68951;53.130;18.104;2023-06-19T10:14:19;8.20;;;6.60;;
79493;SDS011;68951;53.130;18.104;2023-06-19T10:16:48;8.80;;;6.20;;
79493;SDS011;68951;53.130;18.104;2023-06-19T10:19:17;9.90;;;7.10;;
79493;SDS011;68951;53.130;18.104;2023-06-19T10:21:49;9.70;;;6.60;;
79493;SDS011;68951;53.130;18.104;2023-06-19T10:24:20;7.50;;;6.40;;
79493;SDS011;68951;53.130;18.104;2023-06-19T10:26:58;7.50;;;6.60;;
79493;SDS011;68951;53.130;18.104;2023-06-19T10:29:26;7.90;;;6.50;;
79493;SDS011;68951;53.130;18.104;2023-06-19T10:32:05;8.50;;;6.70;;
79493;SDS011;68951;53.130;18.104;2023-06-19T10:34:35;9.30;;;7.10;;
79493;SDS011;68951;53.130;18.104;2023-06-19T10:37:03;8.80;;;7.10;;
79493;SDS011;68951;53.130;18.104;2023-06-19T10:39:31;7.80;;;5.80;;
79493;SDS011;68951;53.130;18.104;2023-06-19T10:41:58;8.30;;;6.30;;
79493;SDS011;68951;53.130;18.104;2023-06-19T10:44:25;8.70;;;6.90;;
79493;SDS011;68951;53.130;18.104;2023-06-19T10:46:53;7.80;;;6.40;;
79493;SDS011;68951;53.130;18.104;2023-06-19T10:49:21;9.10;;;7.00;;
79493;SDS011;68951;53.130;18.104;2023-06-19T10:51:48;8.70;;;6.90;;
79493;SDS011;68951;53.130;18.104;2023-06-19T10:54:15;7.80;;;6.90;;
79493;SDS011;68951;53.130;18.104;2023-06-19T10:56:42;8.30;;;5.10;;
79493;SDS011;68951;53.130;18.104;2023-06-19T10:59:15;8.10;;;6.90;;
79493;SDS011;68951;53.130;18.104;2023-06-19T11:01:44;8.60;;;6.60;;
79493;SDS011;68951;53.130;18.104;2023-06-19T11:04:13;7.40;;;5.90;;
79493;SDS011;68951;53.130;18.104;2023-06-19T11:06:43;6.20;;;5.10;;
79493;SDS011;68951;53.130;18.104;2023-06-19T11:09:12;7.70;;;6.30;;
79493;SDS011;68951;53.130;18.104;2023-06-19T11:11:47;10.70;;;6.70;;
79493;SDS011;68951;53.130;18.104;2023-06-19T11:14:15;8.10;;;6.10;;
79493;SDS011;68951;53.130;18.104;2023-06-19T11:16:45;8.70;;;6.20;;
79493;SDS011;68951;53.130;18.104;2023-06-19T11:19:21;8.90;;;7.20;;
79493;SDS011;68951;53.130;18.104;2023-06-19T11:21:51;8.60;;;6.00;;
79493;SDS011;68951;53.130;18.104;2023-06-19T11:24:19;7.00;;;5.90;;
79493;SDS011;68951;53.130;18.104;2023-06-19T11:26:49;8.70;;;6.90;;
79493;SDS011;68951;53.130;18.104;2023-06-19T11:29:21;8.00;;;6.30;;
79493;SDS011;68951;53.130;18.104;2023-06-19T11:31:53;6.10;;;4.70;;
79493;SDS011;68951;53.130;18.104;2023-06-19T11:34:33;6.10;;;4.70;;
79493;SDS011;68951;53.130;18.104;2023-06-19T11:37:13;7.70;;;6.30;;
79493;SDS011;68951;53.130;18.104;2023-06-19T11:39:44;8.20;;;6.40;;
79493;SDS011;68951;53.130;18.104;2023-06-19T11:42:11;8.20;;;6.40;;
79493;SDS011;68951;53.130;18.104;2023-06-19T11:44:59;7.50;;;5.60;;
79493;SDS011;68951;53.130;18.104;2023-06-19T11:47:33;8.00;;;6.50;;
79493;SDS011;68951;53.130;18.104;2023-06-19T11:50:04;7.70;;;5.90;;
79493;SDS011;68951;53.130;18.104;2023-06-19T11:52:32;8.40;;;5.70;;
79493;SDS011;68951;53.130;18.104;2023-06-19T11:54:59;8.40;;;5.90;;
79493;SDS011;68951;53.130;18.104;2023-06-19T11:57:29;9.20;;;6.40;;
79493;SDS011;68951;53.130;18.104;2023-06-19T11:59:55;8.00;;;5.90;;
79493;SDS011;68951;53.130;18.104;2023-06-19T12:02:22;6.00;;;4.90;;
79493;SDS011;68951;53.130;18.104;2023-06-19T12:04:49;7.50;;;5.90;;
79493;SDS011;68951;53.130;18.104;2023-06-19T12:07:16;9.20;;;6.10;;
79493;SDS011;68951;53.130;18.104;2023-06-19T12:09:43;7.30;;;6.30;;
79493;SDS011;68951;53.130;18.104;2023-06-19T12:12:10;5.80;;;4.80;;
79493;SDS011;68951;53.130;18.104;2023-06-19T12:14:37;7.10;;;5.60;;
79493;SDS011;68951;53.130;18.104;2023-06-19T12:17:04;6.30;;;4.50;;
79493;SDS011;68951;53.130;18.104;2023-06-19T12:19:31;6.70;;;5.70;;
79493;SDS011;68951;53.130;18.104;2023-06-19T12:21:57;8.80;;;5.90;;
79493;SDS011;68951;53.130;18.104;2023-06-19T12:24:25;6.70;;;4.70;;
79493;SDS011;68951;53.130;18.104;2023-06-19T12:26:52;6.40;;;5.50;;
79493;SDS011;68951;53.130;18.104;2023-06-19T12:29:19;6.10;;;5.00;;
79493;SDS011;68951;53.130;18.104;2023-06-19T12:31:47;7.30;;;5.70;;
79493;SDS011;68951;53.130;18.104;2023-06-19T12:34:14;9.70;;;5.80;;
79493;SDS011;68951;53.130;18.104;2023-06-19T12:36:41;6.50;;;5.00;;
79493;SDS011;68951;53.130;18.104;2023-06-19T12:39:08;6.90;;;5.80;;
79493;SDS011;68951;53.130;18.104;2023-06-19T12:41:42;7.60;;;5.00;;
79493;SDS011;68951;53.130;18.104;2023-06-19T12:44:10;6.00;;;5.00;;
79493;SDS011;68951;53.130;18.104;2023-06-19T12:46:37;9.80;;;6.20;;
79493;SDS011;68951;53.130;18.104;2023-06-19T12:49:03;8.10;;;6.10;;
79493;SDS011;68951;53.130;18.104;2023-06-19T12:51:30;8.00;;;5.90;;
79493;SDS011;68951;53.130;18.104;2023-06-19T12:53:57;6.50;;;4.80;;
79493;SDS011;68951;53.130;18.104;2023-06-19T12:56:24;7.50;;;6.00;;
79493;SDS011;68951;53.130;18.104;2023-06-19T12:58:51;7.00;;;5.80;;
79493;SDS011;68951;53.130;18.104;2023-06-19T13:01:18;10.20;;;6.30;;
79493;SDS011;68951;53.130;18.104;2023-06-19T13:03:44;7.90;;;5.90;;
79493;SDS011;68951;53.130;18.104;2023-06-19T13:06:11;8.80;;;6.40;;
79493;SDS011;68951;53.130;18.104;2023-06-19T13:08:38;8.50;;;6.50;;
79493;SDS011;68951;53.130;18.104;2023-06-19T13:11:05;9.10;;;6.90;;
79493;SDS011;68951;53.130;18.104;2023-06-19T13:13:32;8.40;;;6.50;;
79493;SDS011;68951;53.130;18.104;2023-06-19T13:15:59;8.20;;;6.60;;
79493;SDS011;68951;53.130;18.104;2023-06-19T13:18:26;8.30;;;6.30;;
79493;SDS011;68951;53.130;18.104;2023-06-19T13:20:53;8.80;;;6.40;;
79493;SDS011;68951;53.130;18.104;2023-06-19T13:23:20;7.10;;;6.40;;
79493;SDS011;68951;53.130;18.104;2023-06-19T13:25:46;8.00;;;6.70;;
79493;SDS011;68951;53.130;18.104;2023-06-19T13:28:13;6.90;;;6.10;;
79493;SDS011;68951;53.130;18.104;2023-06-19T13:30:40;8.50;;;6.40;;
79493;SDS011;68951;53.130;18.104;2023-06-19T13:33:07;8.00;;;6.40;;
79493;SDS011;68951;53.130;18.104;2023-06-19T13:35:34;7.80;;;6.60;;
79493;SDS011;68951;53.130;18.104;2023-06-19T13:38:01;7.00;;;5.90;;
79493;SDS011;68951;53.130;18.104;2023-06-19T13:40:28;6.20;;;4.70;;
79493;SDS011;68951;53.130;18.104;2023-06-19T13:42:55;5.40;;;4.20;;
79493;SDS011;68951;53.130;18.104;2023-06-19T13:45:22;5.50;;;4.40;;
79493;SDS011;68951;53.130;18.104;2023-06-19T13:47:49;6.00;;;5.10;;
79493;SDS011;68951;53.130;18.104;2023-06-19T13:50:16;6.70;;;6.00;;
79493;SDS011;68951;53.130;18.104;2023-06-19T13:52:48;6.60;;;5.30;;
79493;SDS011;68951;53.130;18.104;2023-06-19T13:55:15;5.10;;;3.90;;
79493;SDS011;68951;53.130;18.104;2023-06-19T13:57:43;7.00;;;6.30;;
79493;SDS011;68951;53.130;18.104;2023-06-19T14:00:11;7.00;;;5.40;;
79493;SDS011;68951;53.130;18.104;2023-06-19T14:02:38;6.50;;;5.30;;
79493;SDS011;68951;53.130;18.104;2023-06-19T14:05:08;7.40;;;6.50;;
79493;SDS011;68951;53.130;18.104;2023-06-19T14:07:36;8.00;;;6.20;;
79493;SDS011;68951;53.130;18.104;2023-06-19T14:10:04;7.70;;;6.80;;
79493;SDS011;68951;53.130;18.104;2023-06-19T14:12:31;7.10;;;6.40;;
79493;SDS011;68951;53.130;18.104;2023-06-19T14:14:58;8.40;;;5.60;;
79493;SDS011;68951;53.130;18.104;2023-06-19T14:17:25;7.70;;;6.50;;
79493;SDS011;68951;53.130;18.104;2023-06-19T14:19:53;6.40;;;4.50;;
79493;SDS011;68951;53.130;18.104;2023-06-19T14:22:21;7.60;;;5.90;;
79493;SDS011;68951;53.130;18.104;2023-06-19T14:24:48;8.80;;;6.80;;
79493;SDS011;68951;53.130;18.104;2023-06-19T14:27:16;8.50;;;6.00;;